Time;durP1;ratioP1;P1;durP2;ratioP2;P2;SDS_P1;SDS_P2;PMS_P1;PMS_P2;Temp;Humidity;BMP_temperature;BMP_pressure;BME280_temperature;BME280_humidity;BME280_pressure;Samples;Min_cycle;Max_cycle;Signal;HPM_P1;HPM_P2
2021/12/17 00:04:38;;;;;;;9.73;5.73;;;7.00;99.90;;;;;;5115631;28;20158;-68
2021/12/17 00:07:10;;;;;;;15.80;7.13;;;7.00;99.90;;;;;;5115005;28;20244;-68
2021/12/17 00:09:36;;;;;;;10.57;5.73;;;7.00;99.90;;;;;;5114306;28;20165;-69
2021/12/17 00:12:03;;;;;;;14.37;6.23;;;6.90;99.90;;;;;;5114609;28;20182;-69
2021/12/17 00:14:36;;;;;;;13.77;6.70;;;6.90;99.90;;;;;;5114142;28;20187;-68
2021/12/17 00:17:05;;;;;;;12.67;6.27;;;6.90;99.90;;;;;;5106804;28;20163;-68
2021/12/17 00:44:16;;;;;;;9.07;5.67;;;6.90;99.90;;;;;;5114464;28;20519;-69
2021/12/17 00:49:39;;;;;;;15.77;8.27;;;6.80;99.90;;;;;;5073857;28;20186;-69
2021/12/17 00:52:05;;;;;;;17.87;7.57;;;6.70;99.90;;;;;;5115818;28;20225;-69
2021/12/17 00:54:38;;;;;;;16.00;6.37;;;6.70;99.90;;;;;;5116800;28;20249;-69
2021/12/17 00:57:13;;;;;;;11.83;6.60;;;6.80;99.90;;;;;;5113876;28;20577;-69
2021/12/17 00:59:42;;;;;;;12.53;6.37;;;6.80;99.90;;;;;;5114214;28;20200;-69
2021/12/17 01:02:13;;;;;;;15.60;6.87;;;6.80;99.90;;;;;;5113419;28;20157;-69
2021/12/17 01:04:50;;;;;;;14.70;6.93;;;6.80;99.90;;;;;;5114387;28;20173;-68
2021/12/17 01:07:18;;;;;;;10.67;6.03;;;6.70;99.90;;;;;;5115314;28;20170;-68
2021/12/17 01:09:45;;;;;;;12.10;6.43;;;6.80;99.90;;;;;;5115038;28;20152;-68
2021/12/17 01:12:12;;;;;;;12.47;6.17;;;6.80;99.90;;;;;;5096587;28;20622;-69
2021/12/17 01:14:40;;;;;;;14.33;6.73;;;6.80;99.90;;;;;;5114699;28;20162;-68
2021/12/17 01:17:07;;;;;;;18.97;7.87;;;6.80;99.90;;;;;;5116087;28;20165;-68
2021/12/17 01:24:58;;;;;;;11.53;5.83;;;6.80;99.90;;;;;;5113266;28;20158;-68
2021/12/17 01:35:40;;;;;;;11.57;6.33;;;6.90;99.90;;;;;;5112674;28;20240;-68
2021/12/17 01:43:45;;;;;;;17.70;7.77;;;6.90;99.90;;;;;;5113229;28;20185;-69
2021/12/17 01:46:15;;;;;;;19.73;7.73;;;7.00;99.90;;;;;;5113358;28;20656;-69
2021/12/17 01:48:56;;;;;;;12.80;7.10;;;7.00;99.90;;;;;;5113097;28;20244;-68
2021/12/17 01:59:39;;;;;;;12.90;6.60;;;7.00;99.90;;;;;;5112927;28;20167;-68
2021/12/17 02:02:07;;;;;;;16.60;7.80;;;7.10;99.90;;;;;;5113545;28;20200;-70
2021/12/17 02:04:35;;;;;;;13.83;7.13;;;7.00;99.90;;;;;;5112934;28;20158;-69
2021/12/17 02:07:05;;;;;;;12.83;6.80;;;7.10;99.90;;;;;;5115688;28;20200;-68
2021/12/17 02:28:49;;;;;;;12.97;6.70;;;7.10;99.90;;;;;;5116916;28;20173;-69
2021/12/17 02:33:47;;;;;;;16.90;7.80;;;7.00;99.90;;;;;;5118338;28;20506;-69
2021/12/17 02:36:17;;;;;;;20.43;8.47;;;6.90;99.90;;;;;;5117383;28;20226;-68
2021/12/17 02:38:42;;;;;;;15.80;7.27;;;7.00;99.90;;;;;;5116221;28;20604;-69
2021/12/17 02:46:37;;;;;;;19.90;8.40;;;7.00;99.90;;;;;;5116298;28;20181;-68
2021/12/17 02:49:04;;;;;;;17.53;7.67;;;7.00;99.90;;;;;;5116259;28;20163;-68
2021/12/17 02:51:30;;;;;;;21.93;8.47;;;7.00;99.90;;;;;;5116934;28;20163;-68
2021/12/17 02:53:56;;;;;;;18.33;9.07;;;7.00;99.90;;;;;;5098617;28;20182;-69
2021/12/17 02:56:22;;;;;;;19.67;9.93;;;7.00;99.90;;;;;;5116412;28;20195;-68
2021/12/17 02:58:48;;;;;;;25.53;11.20;;;7.10;99.90;;;;;;5116492;28;20195;-68
2021/12/17 03:01:14;;;;;;;17.73;7.73;;;7.00;99.90;;;;;;5116280;28;20158;-68
2021/12/17 03:03:43;;;;;;;17.07;8.80;;;7.00;99.90;;;;;;5115747;28;20166;-70
2021/12/17 03:06:08;;;;;;;16.50;8.57;;;7.00;99.90;;;;;;5116142;28;20183;-69
2021/12/17 03:08:35;;;;;;;20.40;9.17;;;7.00;99.90;;;;;;5116513;28;20579;-68
2021/12/17 03:11:01;;;;;;;20.33;9.47;;;7.00;99.90;;;;;;5116190;28;20169;-69
2021/12/17 03:13:29;;;;;;;17.67;8.53;;;7.00;99.90;;;;;;5115842;28;20241;-71
2021/12/17 03:16:01;;;;;;;23.13;9.77;;;6.90;99.90;;;;;;5115755;28;20217;-69
2021/12/17 03:26:07;;;;;;;11.30;7.23;;;6.90;99.90;;;;;;5123067;28;20168;-69
2021/12/17 03:28:34;;;;;;;16.80;9.23;;;6.80;99.90;;;;;;5118452;28;20189;-67
2021/12/17 03:31:00;;;;;;;13.67;7.40;;;6.80;99.90;;;;;;5115159;28;20178;-68
2021/12/17 03:33:27;;;;;;;19.43;8.10;;;6.90;99.90;;;;;;5115128;28;20320;-69
2021/12/17 03:35:52;;;;;;;17.53;8.10;;;6.80;99.90;;;;;;5115412;28;20222;-68
2021/12/17 03:38:19;;;;;;;21.23;8.50;;;6.80;99.90;;;;;;5115243;28;20228;-68
2021/12/17 03:40:46;;;;;;;16.50;8.93;;;6.80;99.90;;;;;;5115477;28;20173;-68
2021/12/17 03:43:14;;;;;;;17.43;7.67;;;6.70;99.90;;;;;;5115153;28;20307;-68
2021/12/17 03:45:41;;;;;;;21.17;8.43;;;6.70;99.90;;;;;;5114785;28;20162;-67
2021/12/17 03:48:08;;;;;;;22.37;7.87;;;6.70;99.90;;;;;;5114957;28;20212;-67
2021/12/17 03:50:36;;;;;;;20.03;8.77;;;6.80;99.90;;;;;;5114799;28;20158;-69
2021/12/17 03:53:03;;;;;;;22.70;11.73;;;6.70;99.90;;;;;;5115221;28;20159;-69
2021/12/17 03:55:29;;;;;;;20.60;11.03;;;6.70;99.90;;;;;;5115021;28;20202;-69
2021/12/17 03:57:58;;;;;;;24.60;8.13;;;6.70;99.90;;;;;;5114880;28;20160;-68
2021/12/17 04:00:24;;;;;;;22.57;9.90;;;6.70;99.90;;;;;;5096259;28;20189;-68
2021/12/17 04:02:50;;;;;;;21.27;8.63;;;6.60;99.90;;;;;;5115596;28;20164;-67
2021/12/17 04:05:15;;;;;;;23.50;8.90;;;6.70;99.90;;;;;;5114666;28;20166;-69
2021/12/17 04:07:41;;;;;;;20.70;7.47;;;6.70;99.90;;;;;;5114477;28;20163;-68
2021/12/17 04:10:07;;;;;;;23.10;9.27;;;6.60;99.90;;;;;;5114456;28;20167;-68
2021/12/17 04:12:48;;;;;;;19.13;8.87;;;6.60;99.90;;;;;;5096132;28;20218;-68
2021/12/17 04:15:15;;;;;;;17.33;8.20;;;6.60;99.90;;;;;;5114538;28;20282;-69
2021/12/17 04:17:45;;;;;;;19.33;8.60;;;6.50;99.90;;;;;;5114472;28;20625;-68
2021/12/17 04:20:11;;;;;;;18.73;8.63;;;6.60;99.90;;;;;;5114518;28;20156;-68
2021/12/17 04:22:37;;;;;;;19.47;8.83;;;6.60;99.90;;;;;;5114696;28;20171;-69
2021/12/17 04:25:03;;;;;;;18.03;9.67;;;6.50;99.90;;;;;;5114444;28;20171;-69
2021/12/17 04:27:29;;;;;;;20.63;10.90;;;6.50;99.90;;;;;;5114457;28;20177;-69
2021/12/17 04:29:56;;;;;;;22.37;11.53;;;6.40;99.90;;;;;;5114636;28;20162;-68
2021/12/17 04:32:22;;;;;;;25.87;11.33;;;6.40;99.90;;;;;;5115087;28;20662;-68
2021/12/17 04:34:49;;;;;;;23.53;11.47;;;6.40;99.90;;;;;;5114349;28;20171;-69
2021/12/17 04:37:14;;;;;;;18.60;8.10;;;6.30;99.90;;;;;;5114498;28;20235;-67
2021/12/17 04:39:40;;;;;;;22.37;9.17;;;6.30;99.90;;;;;;5114376;28;20566;-68
2021/12/17 04:42:14;;;;;;;20.67;8.93;;;6.30;99.90;;;;;;5114558;28;20541;-70
2021/12/17 04:44:48;;;;;;;18.73;9.13;;;6.30;99.90;;;;;;5113753;28;20160;-69
2021/12/17 04:57:39;;;;;;;23.57;11.40;;;6.20;99.90;;;;;;5115162;28;20239;-69
2021/12/17 05:00:12;;;;;;;22.93;10.87;;;6.20;99.90;;;;;;5114936;28;20150;-70
2021/12/17 05:02:43;;;;;;;20.73;11.23;;;6.10;99.90;;;;;;5097299;28;20268;-70
2021/12/17 05:05:11;;;;;;;27.90;11.17;;;6.10;99.90;;;;;;5115922;28;20192;-69
2021/12/17 05:07:42;;;;;;;18.73;10.60;;;6.20;99.90;;;;;;5116245;28;20158;-68
2021/12/17 05:20:50;;;;;;;17.27;9.47;;;6.20;99.90;;;;;;5115274;28;20170;-68
2021/12/17 05:23:22;;;;;;;16.60;8.43;;;6.10;99.90;;;;;;5113681;28;20208;-68
2021/12/17 05:25:47;;;;;;;21.00;10.77;;;6.20;99.90;;;;;;5113590;28;20206;-68
2021/12/17 05:28:13;;;;;;;21.70;10.83;;;6.20;99.90;;;;;;5095297;28;20601;-68
2021/12/17 05:30:45;;;;;;;21.87;11.73;;;6.10;99.90;;;;;;5113357;28;20203;-67
2021/12/17 05:33:11;;;;;;;25.70;12.37;;;6.10;99.90;;;;;;5114104;28;20166;-67
2021/12/17 05:35:36;;;;;;;20.40;9.07;;;6.10;99.90;;;;;;5113743;28;20236;-69
2021/12/17 05:38:02;;;;;;;19.07;9.10;;;6.10;99.90;;;;;;5113931;28;20181;-70
2021/12/17 05:40:28;;;;;;;20.93;10.60;;;6.00;99.90;;;;;;5113485;28;20172;-68
2021/12/17 05:42:58;;;;;;;18.33;7.93;;;6.10;99.90;;;;;;5117270;28;20287;-67
2021/12/17 05:45:35;;;;;;;24.37;10.70;;;6.00;99.90;;;;;;5117302;28;20154;-68
2021/12/17 05:48:06;;;;;;;22.83;11.37;;;6.00;99.90;;;;;;5117778;28;20160;-68
2021/12/17 05:50:34;;;;;;;26.20;11.90;;;6.10;99.90;;;;;;5117452;28;20162;-70
2021/12/17 05:52:59;;;;;;;22.57;10.83;;;6.00;99.90;;;;;;5117654;28;20261;-68
2021/12/17 05:55:26;;;;;;;22.93;8.03;;;6.00;99.90;;;;;;5098995;28;20579;-69
2021/12/17 05:57:52;;;;;;;18.93;11.07;;;6.00;99.90;;;;;;5117653;28;20193;-68
2021/12/17 06:00:19;;;;;;;26.57;11.07;;;6.00;99.90;;;;;;5118811;28;20195;-68
2021/12/17 06:02:45;;;;;;;24.87;10.23;;;6.00;99.90;;;;;;5099409;28;20246;-68
2021/12/17 06:05:11;;;;;;;20.80;9.93;;;5.90;99.90;;;;;;5117300;28;20432;-69
2021/12/17 06:07:37;;;;;;;28.80;12.27;;;5.90;99.90;;;;;;5117190;28;20224;-70
2021/12/17 06:10:04;;;;;;;24.73;11.10;;;5.90;99.90;;;;;;5117412;28;20599;-69
2021/12/17 06:12:30;;;;;;;20.53;11.13;;;5.90;99.90;;;;;;5116537;28;20215;-70
2021/12/17 06:14:56;;;;;;;30.20;12.40;;;5.90;99.90;;;;;;5097118;28;20669;-69
2021/12/17 06:17:22;;;;;;;26.87;12.80;;;5.80;99.90;;;;;;5096073;28;20171;-70
2021/12/17 06:19:48;;;;;;;27.70;13.27;;;5.90;99.90;;;;;;5096419;28;20176;-70
2021/12/17 06:22:15;;;;;;;29.50;11.87;;;5.90;99.90;;;;;;5096473;28;20228;-69
2021/12/17 06:24:44;;;;;;;26.73;12.70;;;5.90;99.90;;;;;;5096268;28;20680;-70
2021/12/17 06:27:19;;;;;;;25.87;10.93;;;5.80;99.90;;;;;;5096274;28;20210;-70
2021/12/17 06:29:45;;;;;;;23.33;11.93;;;5.70;99.90;;;;;;5077497;28;20181;-69
2021/12/17 06:32:11;;;;;;;26.37;9.70;;;5.60;99.90;;;;;;5096368;28;20183;-69
2021/12/17 06:34:37;;;;;;;28.30;12.50;;;5.70;99.90;;;;;;5096278;28;20215;-69
2021/12/17 06:37:04;;;;;;;30.20;13.33;;;5.70;99.90;;;;;;5077593;28;20628;-68
2021/12/17 06:39:31;;;;;;;24.87;12.20;;;5.60;99.90;;;;;;5095898;28;20592;-69
2021/12/17 06:41:56;;;;;;;27.60;11.43;;;5.70;99.90;;;;;;5095693;28;20215;-68
2021/12/17 06:44:25;;;;;;;27.37;13.17;;;5.60;99.90;;;;;;5096402;28;20189;-69
2021/12/17 07:21:15;;;;;;;34.00;13.23;;;5.70;99.90;;;;;;5094989;28;20180;-67
2021/12/17 07:34:15;;;;;;;33.43;14.30;;;5.60;99.90;;;;;;5075020;28;20280;-69
2021/12/17 07:39:30;;;;;;;34.40;15.07;;;5.50;99.90;;;;;;5047684;28;20195;-70
2021/12/17 07:41:55;;;;;;;29.93;13.87;;;5.50;99.90;;;;;;5076631;28;20519;-69
2021/12/17 07:44:21;;;;;;;27.37;11.40;;;5.50;99.90;;;;;;5077680;28;20170;-69
2021/12/17 07:46:46;;;;;;;29.97;13.67;;;5.50;99.90;;;;;;5078746;28;20160;-69
2021/12/17 07:49:12;;;;;;;32.17;12.70;;;5.50;99.90;;;;;;5074988;28;20169;-69
2021/12/17 07:51:38;;;;;;;28.47;12.40;;;5.60;99.90;;;;;;5075482;28;20164;-65
2021/12/17 07:54:04;;;;;;;35.33;12.87;;;5.50;99.90;;;;;;5076167;28;20167;-68
2021/12/17 07:56:37;;;;;;;27.63;12.83;;;5.50;99.90;;;;;;5074440;28;20244;-69
2021/12/17 07:59:08;;;;;;;33.27;14.20;;;5.50;99.90;;;;;;5074285;28;20178;-69
2021/12/17 08:01:35;;;;;;;29.33;13.20;;;5.60;99.90;;;;;;5074208;28;20220;-69
2021/12/17 08:04:05;;;;;;;25.77;13.33;;;5.60;99.90;;;;;;5073838;28;20247;-69
2021/12/17 08:06:31;;;;;;;29.57;14.13;;;5.50;99.90;;;;;;5074379;28;20645;-69
2021/12/17 08:08:57;;;;;;;31.23;13.63;;;5.50;99.90;;;;;;5074155;28;20254;-70
2021/12/17 08:11:23;;;;;;;24.07;11.03;;;5.60;99.90;;;;;;5074103;28;20207;-69
2021/12/17 08:13:50;;;;;;;31.23;13.17;;;5.50;99.90;;;;;;5071549;28;20185;-68
2021/12/17 08:31:30;;;;;;;27.83;13.13;;;5.40;99.90;;;;;;5073674;28;20192;-67
2021/12/17 08:33:56;;;;;;;28.93;12.00;;;5.50;99.90;;;;;;5073336;28;20176;-68
2021/12/17 08:36:22;;;;;;;29.77;13.20;;;5.40;99.90;;;;;;5073579;28;20244;-68
2021/12/17 08:38:49;;;;;;;30.37;12.73;;;5.40;99.90;;;;;;5073700;28;20151;-69
2021/12/17 08:41:17;;;;;;;22.70;10.30;;;5.40;99.90;;;;;;5073648;28;20172;-68
2021/12/17 08:43:43;;;;;;;26.50;12.10;;;5.40;99.90;;;;;;5073234;28;20163;-69
2021/12/17 08:46:09;;;;;;;25.27;11.27;;;5.30;99.90;;;;;;5073518;28;20204;-68
2021/12/17 08:48:34;;;;;;;29.43;12.97;;;5.40;99.90;;;;;;5073190;28;20210;-67
2021/12/17 08:51:01;;;;;;;27.97;13.47;;;5.40;99.90;;;;;;5073594;28;20173;-68
2021/12/17 08:53:26;;;;;;;20.27;8.03;;;5.40;99.90;;;;;;5072877;28;20466;-69
2021/12/17 08:55:52;;;;;;;23.83;11.10;;;5.30;99.90;;;;;;5072894;28;20194;-68
2021/12/17 08:58:18;;;;;;;29.60;12.07;;;5.40;99.90;;;;;;5072890;28;20160;-68
2021/12/17 09:00:45;;;;;;;28.17;11.27;;;5.40;99.90;;;;;;5073629;28;20175;-68
2021/12/17 09:03:12;;;;;;;26.97;11.50;;;5.50;99.90;;;;;;5073256;28;20496;-68
2021/12/17 09:05:38;;;;;;;30.53;11.40;;;5.40;99.90;;;;;;5073052;28;20167;-67
2021/12/17 09:08:06;;;;;;;27.63;11.50;;;5.40;99.90;;;;;;5074062;28;20171;-69
2021/12/17 09:10:32;;;;;;;24.20;11.47;;;5.40;99.90;;;;;;5075890;28;20171;-68
2021/12/17 09:12:58;;;;;;;28.53;13.50;;;5.30;99.90;;;;;;5076043;28;20167;-68
2021/12/17 09:15:24;;;;;;;34.07;13.83;;;5.30;99.90;;;;;;5076193;28;20197;-71
2021/12/17 09:17:50;;;;;;;30.27;14.20;;;5.40;99.90;;;;;;5078856;28;20193;-68
2021/12/17 09:20:16;;;;;;;27.43;12.67;;;5.40;99.90;;;;;;5082996;28;20183;-68
2021/12/17 09:22:41;;;;;;;33.33;13.57;;;5.40;99.90;;;;;;5074062;28;20164;-68
2021/12/17 09:25:08;;;;;;;28.97;12.53;;;5.50;99.90;;;;;;5073129;28;20166;-68
2021/12/17 09:27:33;;;;;;;24.80;9.43;;;5.50;99.90;;;;;;5071585;28;20640;-69
2021/12/17 09:29:59;;;;;;;26.07;11.87;;;5.50;99.90;;;;;;5073362;28;20170;-68
2021/12/17 09:32:25;;;;;;;24.17;10.97;;;5.50;99.90;;;;;;5073673;28;20219;-68
2021/12/17 09:34:51;;;;;;;29.63;12.63;;;5.50;99.90;;;;;;5072916;28;20182;-68
2021/12/17 09:37:17;;;;;;;24.53;12.47;;;5.50;99.90;;;;;;5073399;28;20313;-68
2021/12/17 09:39:43;;;;;;;26.43;12.03;;;5.60;99.90;;;;;;5073116;28;20158;-68
2021/12/17 09:42:10;;;;;;;28.77;12.50;;;5.60;99.90;;;;;;5072712;28;20176;-70
2021/12/17 09:44:36;;;;;;;30.60;13.27;;;5.60;99.90;;;;;;5072963;28;20233;-68
2021/12/17 09:47:02;;;;;;;27.33;11.57;;;5.60;99.90;;;;;;5072606;28;20169;-68
2021/12/17 09:49:28;;;;;;;21.93;11.93;;;5.60;99.90;;;;;;5071600;28;20521;-69
2021/12/17 09:51:56;;;;;;;33.00;13.43;;;5.60;99.90;;;;;;5073050;28;20176;-68
2021/12/17 09:54:22;;;;;;;15.47;8.30;;;5.70;99.90;;;;;;5072092;28;20495;-67
2021/12/17 09:56:48;;;;;;;26.17;12.17;;;5.60;99.90;;;;;;5072175;28;20293;-67
2021/12/17 09:59:14;;;;;;;22.57;11.37;;;5.60;99.90;;;;;;5073172;28;20208;-68
2021/12/17 10:01:42;;;;;;;18.73;8.67;;;5.70;99.90;;;;;;5072583;28;20668;-68
2021/12/17 10:04:17;;;;;;;29.40;12.53;;;5.60;99.90;;;;;;5072733;28;20175;-69
2021/12/17 10:06:45;;;;;;;26.37;11.83;;;5.60;99.90;;;;;;5071461;28;20625;-68
2021/12/17 10:09:11;;;;;;;24.50;12.00;;;5.60;99.90;;;;;;5073030;28;20228;-67
2021/12/17 10:11:37;;;;;;;16.13;8.03;;;5.70;99.90;;;;;;5073222;28;20163;-68
2021/12/17 10:14:17;;;;;;;19.17;9.90;;;5.80;99.90;;;;;;5073897;28;20602;-68
2021/12/17 10:16:43;;;;;;;22.00;11.27;;;5.70;99.90;;;;;;5077848;28;20192;-67
2021/12/17 10:19:08;;;;;;;33.27;11.10;;;5.70;99.90;;;;;;5075561;28;20166;-67
2021/12/17 10:21:38;;;;;;;24.13;11.20;;;5.80;99.90;;;;;;5072978;28;20577;-67
2021/12/17 10:24:04;;;;;;;31.63;12.73;;;5.80;99.90;;;;;;5072070;28;20183;-65
2021/12/17 10:26:40;;;;;;;21.93;9.43;;;5.80;99.90;;;;;;5071940;28;20172;-66
2021/12/17 10:29:06;;;;;;;25.50;10.30;;;5.80;99.90;;;;;;5076200;28;20197;-70
2021/12/17 10:31:37;;;;;;;25.73;11.60;;;5.80;99.90;;;;;;5074842;28;20229;-67
2021/12/17 10:34:04;;;;;;;23.87;9.70;;;5.80;99.90;;;;;;5075135;28;20584;-68
2021/12/17 10:36:35;;;;;;;20.27;10.23;;;5.90;99.90;;;;;;5075892;28;20413;-69
2021/12/17 10:39:11;;;;;;;27.40;11.87;;;5.80;99.90;;;;;;5075547;28;20212;-69
2021/12/17 10:41:48;;;;;;;18.60;8.33;;;5.90;99.90;;;;;;5075321;28;20160;-67
2021/12/17 10:44:14;;;;;;;24.73;10.27;;;5.80;99.90;;;;;;5075334;28;20163;-69
2021/12/17 10:46:56;;;;;;;22.47;10.77;;;5.80;99.90;;;;;;5075227;28;20175;-69
2021/12/17 10:49:25;;;;;;;25.93;12.07;;;5.70;99.90;;;;;;5075464;28;20162;-67
2021/12/17 10:52:06;;;;;;;25.63;12.00;;;5.80;99.90;;;;;;5075301;28;20632;-69
2021/12/17 10:54:33;;;;;;;18.67;8.83;;;5.80;99.90;;;;;;5075080;28;20572;-71
2021/12/17 10:56:59;;;;;;;26.77;8.47;;;5.80;99.90;;;;;;5075317;28;20232;-68
2021/12/17 10:59:30;;;;;;;26.30;10.13;;;5.90;99.90;;;;;;5075343;28;20173;-67
2021/12/17 11:02:00;;;;;;;26.77;11.90;;;5.90;99.90;;;;;;5075091;28;20165;-66
2021/12/17 11:04:35;;;;;;;23.70;10.70;;;5.80;99.90;;;;;;5075118;28;20166;-67
2021/12/17 11:07:13;;;;;;;20.83;9.57;;;5.80;99.90;;;;;;5075178;28;20210;-67
2021/12/17 11:09:45;;;;;;;19.00;8.60;;;5.80;99.90;;;;;;5075796;28;20169;-69
2021/12/17 11:12:14;;;;;;;21.37;9.83;;;5.90;99.90;;;;;;5075229;28;20204;-68
2021/12/17 11:14:44;;;;;;;17.70;7.60;;;5.90;99.90;;;;;;5075810;28;20214;-68
2021/12/17 11:17:14;;;;;;;12.93;7.00;;;5.90;99.90;;;;;;5075238;28;20202;-67
2021/12/17 11:19:41;;;;;;;21.07;10.20;;;5.90;99.90;;;;;;5075311;28;20167;-66
2021/12/17 11:22:07;;;;;;;22.43;10.77;;;5.90;99.90;;;;;;5075169;28;20176;-67
2021/12/17 11:24:34;;;;;;;23.93;9.93;;;6.10;99.90;;;;;;5074681;28;20521;-68
2021/12/17 11:27:06;;;;;;;16.87;7.30;;;6.00;99.90;;;;;;5072987;28;20196;-68
2021/12/17 11:29:32;;;;;;;21.93;8.97;;;6.10;99.90;;;;;;5095536;28;20316;-69
2021/12/17 11:32:03;;;;;;;21.77;8.43;;;6.10;99.90;;;;;;5094849;28;20185;-68
2021/12/17 11:34:30;;;;;;;18.10;8.57;;;6.10;99.90;;;;;;5095372;28;20188;-68
2021/12/17 11:36:58;;;;;;;17.93;8.43;;;6.10;99.90;;;;;;5060903;28;20659;-68
2021/12/17 11:39:29;;;;;;;21.47;10.47;;;6.10;99.90;;;;;;5073912;28;20187;-67
2021/12/17 11:42:13;;;;;;;17.13;9.77;;;6.10;99.90;;;;;;5074902;28;20166;-67
2021/12/17 11:44:42;;;;;;;16.13;8.17;;;6.10;99.90;;;;;;5074841;28;20164;-68
2021/12/17 11:47:12;;;;;;;27.73;11.30;;;6.10;99.90;;;;;;5076430;28;20164;-68
2021/12/17 11:49:45;;;;;;;23.40;11.20;;;6.20;99.90;;;;;;5080762;28;20265;-68
2021/12/17 11:52:11;;;;;;;27.00;11.70;;;6.20;99.90;;;;;;5078306;28;20460;-68
2021/12/17 11:54:37;;;;;;;16.33;7.57;;;6.20;99.90;;;;;;5080723;28;20237;-68
2021/12/17 11:57:07;;;;;;;16.93;8.30;;;6.20;99.90;;;;;;5077881;28;20641;-68
2021/12/17 11:59:37;;;;;;;17.30;7.80;;;6.20;99.90;;;;;;5074344;28;20509;-68
2021/12/17 12:02:11;;;;;;;18.97;9.77;;;6.20;99.90;;;;;;5074583;28;20493;-69
2021/12/17 12:04:51;;;;;;;20.53;8.97;;;6.30;99.90;;;;;;5074174;28;20248;-68
2021/12/17 12:07:26;;;;;;;21.80;8.53;;;6.20;99.90;;;;;;5074277;28;20170;-69
2021/12/17 12:10:13;;;;;;;14.23;6.90;;;6.30;99.90;;;;;;5074298;28;20180;-67
2021/12/17 12:12:41;;;;;;;19.70;8.00;;;6.20;99.90;;;;;;5074021;28;20158;-67
2021/12/17 12:15:38;;;;;;;17.53;9.63;;;6.30;99.90;;;;;;5073930;28;20164;-67
2021/12/17 12:18:10;;;;;;;25.73;9.60;;;6.40;99.90;;;;;;5056441;28;20267;-66
2021/12/17 12:20:47;;;;;;;12.67;6.73;;;6.30;99.90;;;;;;5074331;28;20167;-68
2021/12/17 12:23:17;;;;;;;21.53;8.00;;;6.30;99.90;;;;;;5074202;28;20228;-69
2021/12/17 12:25:45;;;;;;;19.97;8.43;;;6.20;99.90;;;;;;5073776;28;20239;-68
2021/12/17 12:28:14;;;;;;;17.43;8.23;;;6.40;99.90;;;;;;5073759;28;20219;-67
2021/12/17 12:30:43;;;;;;;14.90;7.90;;;6.40;99.90;;;;;;5073957;28;20612;-67
2021/12/17 12:33:12;;;;;;;16.17;7.67;;;6.30;99.90;;;;;;5073433;28;20175;-67
2021/12/17 12:35:38;;;;;;;22.07;9.37;;;6.30;99.90;;;;;;5073231;28;20230;-67
2021/12/17 12:38:20;;;;;;;22.40;8.73;;;6.30;99.90;;;;;;5072821;28;20248;-67
2021/12/17 12:40:55;;;;;;;18.93;7.73;;;6.20;99.90;;;;;;5073083;28;20558;-67
2021/12/17 12:43:32;;;;;;;17.97;9.90;;;6.20;99.90;;;;;;5072872;28;20508;-67
2021/12/17 12:45:59;;;;;;;20.37;10.40;;;6.20;99.90;;;;;;5073723;28;20198;-68
2021/12/17 12:48:43;;;;;;;19.57;9.63;;;6.20;99.90;;;;;;5073191;28;20525;-68
2021/12/17 12:51:14;;;;;;;15.73;7.43;;;6.30;99.90;;;;;;5072695;28;20163;-67
2021/12/17 12:54:00;;;;;;;18.47;8.53;;;6.30;99.90;;;;;;5073110;28;20192;-69
2021/12/17 12:56:26;;;;;;;19.73;8.80;;;6.20;99.90;;;;;;5073429;28;20212;-68
2021/12/17 12:58:53;;;;;;;12.07;6.67;;;6.20;99.90;;;;;;5038890;28;20180;-67
2021/12/17 13:01:20;;;;;;;17.73;8.10;;;6.20;99.90;;;;;;5073371;28;20168;-68
2021/12/17 13:03:48;;;;;;;17.30;8.77;;;6.20;99.90;;;;;;5073721;28;20172;-67
2021/12/17 13:06:18;;;;;;;22.70;9.33;;;6.20;99.90;;;;;;5075260;28;20590;-67
2021/12/17 13:08:52;;;;;;;22.87;8.43;;;6.30;99.90;;;;;;5074553;28;20156;-70
2021/12/17 13:11:21;;;;;;;12.20;7.10;;;6.30;99.90;;;;;;5074501;28;20182;-67
2021/12/17 13:13:54;;;;;;;18.50;9.83;;;6.20;99.90;;;;;;5073217;28;20473;-67
2021/12/17 13:16:54;;;;;;;17.40;9.20;;;6.20;99.90;;;;;;5073423;28;20201;-68
2021/12/17 13:22:25;;;;;;;11.17;6.43;;;6.20;99.90;;;;;;5072715;28;20207;-68
2021/12/17 13:24:50;;;;;;;16.93;9.23;;;6.20;99.90;;;;;;5072603;28;20183;-68
2021/12/17 13:27:15;;;;;;;21.20;9.17;;;6.20;99.90;;;;;;5073238;28;20196;-67
2021/12/17 13:29:44;;;;;;;17.03;8.50;;;6.20;99.90;;;;;;5073381;28;20161;-68
2021/12/17 13:32:15;;;;;;;12.53;7.27;;;6.20;99.90;;;;;;5055332;28;20182;-66
2021/12/17 13:34:53;;;;;;;12.10;7.50;;;6.20;99.90;;;;;;5073276;28;20450;-67
2021/12/17 13:37:27;;;;;;;13.50;7.10;;;6.20;99.90;;;;;;5054551;28;20322;-68
2021/12/17 13:40:05;;;;;;;16.00;7.37;;;6.20;99.90;;;;;;5072886;28;20250;-68
2021/12/17 13:42:39;;;;;;;15.50;7.27;;;6.20;99.90;;;;;;5064098;28;20185;-68
2021/12/17 13:45:06;;;;;;;19.87;8.37;;;6.20;99.90;;;;;;5073109;28;20173;-68
2021/12/17 13:47:42;;;;;;;14.23;6.87;;;6.30;99.90;;;;;;5072815;28;20192;-66
2021/12/17 13:50:17;;;;;;;15.00;9.33;;;6.20;99.90;;;;;;5073154;28;20211;-68
2021/12/17 13:52:58;;;;;;;19.70;8.60;;;6.30;99.90;;;;;;5072319;28;20159;-67
2021/12/17 13:55:32;;;;;;;17.43;9.23;;;6.30;99.90;;;;;;5072611;28;20258;-68
2021/12/17 13:57:59;;;;;;;19.87;8.33;;;6.30;99.90;;;;;;5072565;28;20171;-69
2021/12/17 14:00:30;;;;;;;12.20;7.03;;;6.40;99.90;;;;;;5072533;28;20167;-67
2021/12/17 14:02:58;;;;;;;11.93;7.67;;;6.30;99.90;;;;;;5074462;28;20159;-67
2021/12/17 14:05:27;;;;;;;14.23;7.50;;;6.30;99.90;;;;;;5076210;28;20163;-68
2021/12/17 14:07:58;;;;;;;27.90;13.60;;;6.30;99.90;;;;;;5075761;28;20277;-68
2021/12/17 14:10:28;;;;;;;20.03;10.27;;;6.30;99.90;;;;;;5076283;28;20175;-67
2021/12/17 14:12:54;;;;;;;22.57;10.03;;;6.30;99.90;;;;;;5075276;28;20180;-67
2021/12/17 14:15:22;;;;;;;18.10;8.13;;;6.30;99.90;;;;;;5076257;28;20164;-69
2021/12/17 14:17:53;;;;;;;15.53;8.00;;;6.30;99.90;;;;;;5075959;28;20167;-69
2021/12/17 14:20:21;;;;;;;18.43;10.23;;;6.40;99.90;;;;;;5075957;28;20649;-68
2021/12/17 14:22:56;;;;;;;22.93;10.20;;;6.40;99.90;;;;;;5076097;28;20169;-69
2021/12/17 14:25:28;;;;;;;17.17;9.43;;;6.40;99.90;;;;;;5075927;28;20497;-69
2021/12/17 14:27:56;;;;;;;20.80;10.90;;;6.40;99.90;;;;;;5075870;28;20172;-68
2021/12/17 14:30:33;;;;;;;23.10;11.50;;;6.40;99.90;;;;;;5075617;28;20182;-69
2021/12/17 14:33:20;;;;;;;16.77;8.50;;;6.40;99.90;;;;;;5075861;28;20209;-69
2021/12/17 14:35:52;;;;;;;15.20;9.17;;;6.40;99.90;;;;;;5080483;28;20576;-68
2021/12/17 14:38:41;;;;;;;21.90;8.53;;;6.40;99.90;;;;;;5095662;28;20165;-68
2021/12/17 14:41:11;;;;;;;20.07;11.67;;;6.40;99.90;;;;;;5095732;28;20279;-67
2021/12/17 14:43:47;;;;;;;17.23;8.77;;;6.40;99.90;;;;;;5095809;28;20171;-70
2021/12/17 14:46:20;;;;;;;19.53;9.77;;;6.40;99.90;;;;;;5095637;28;20250;-69
2021/12/17 15:02:37;;;;;;;18.80;8.40;;;6.40;99.90;;;;;;5095254;28;20636;-68
2021/12/17 15:04:58;;;;;;;16.03;8.10;;;6.50;99.90;;;;;;5094849;28;20176;-69
2021/12/17 15:07:25;;;;;;;15.67;7.77;;;6.40;99.90;;;;;;5095235;28;20224;-68
2021/12/17 15:09:51;;;;;;;26.40;11.00;;;6.40;99.90;;;;;;5095562;28;20590;-70
2021/12/17 15:14:58;;;;;;;15.50;8.27;;;6.50;99.90;;;;;;5093775;28;20163;-70
2021/12/17 15:17:24;;;;;;;17.70;8.80;;;6.40;99.90;;;;;;5095013;28;20566;-70
2021/12/17 15:19:49;;;;;;;17.13;8.73;;;6.50;99.90;;;;;;5095252;28;20165;-69
2021/12/17 15:22:15;;;;;;;15.27;8.13;;;6.50;99.90;;;;;;5095499;28;20624;-68
2021/12/17 15:24:40;;;;;;;19.30;10.67;;;6.40;99.90;;;;;;5095522;28;20639;-68
2021/12/17 15:27:07;;;;;;;23.93;11.87;;;6.40;99.90;;;;;;5095189;28;20606;-69
2021/12/17 15:29:32;;;;;;;24.57;12.17;;;6.50;99.90;;;;;;5095538;28;20258;-70
2021/12/17 15:31:58;;;;;;;24.73;12.10;;;6.40;99.90;;;;;;5096457;28;20315;-70
2021/12/17 15:34:25;;;;;;;23.63;12.40;;;6.40;99.90;;;;;;5076825;28;20227;-69
2021/12/17 15:36:51;;;;;;;26.23;12.30;;;6.50;99.90;;;;;;5094992;28;20259;-68
2021/12/17 15:39:16;;;;;;;23.70;12.30;;;6.60;99.90;;;;;;5095333;28;20159;-67
2021/12/17 15:41:42;;;;;;;18.13;9.20;;;6.40;99.90;;;;;;5094995;28;20647;-70
2021/12/17 15:44:09;;;;;;;21.17;8.93;;;6.50;99.90;;;;;;5076478;28;20171;-68
2021/12/17 15:46:36;;;;;;;27.97;12.10;;;6.50;99.90;;;;;;5096084;28;20175;-68
2021/12/17 15:49:06;;;;;;;23.33;12.43;;;6.40;99.90;;;;;;5080137;28;20171;-68
2021/12/17 15:51:34;;;;;;;20.70;9.50;;;6.50;99.90;;;;;;5097469;28;20172;-68
2021/12/17 15:54:00;;;;;;;17.63;9.53;;;6.50;99.90;;;;;;5100002;28;20243;-68
2021/12/17 15:56:26;;;;;;;23.33;10.63;;;6.50;99.90;;;;;;5097306;28;20226;-69
2021/12/17 15:58:51;;;;;;;19.43;9.97;;;6.50;99.90;;;;;;5100395;28;20582;-68
2021/12/17 16:01:17;;;;;;;17.77;8.83;;;6.50;99.90;;;;;;5079439;28;20177;-67
2021/12/17 16:03:43;;;;;;;23.33;9.93;;;6.50;99.90;;;;;;5098996;28;20164;-69
2021/12/17 16:06:10;;;;;;;21.53;9.57;;;6.40;99.90;;;;;;5101231;28;20162;-68
2021/12/17 16:08:42;;;;;;;17.67;10.10;;;6.50;99.90;;;;;;5099501;28;20649;-68